Time;durP1;ratioP1;P1;durP2;ratioP2;P2;SDS_P1;SDS_P2;PMS_P1;PMS_P2;Temp;Humidity;BMP_temperature;BMP_pressure;BME280_temperature;BME280_humidity;BME280_pressure;Samples;Min_cycle;Max_cycle;Signal;HPM_P1;HPM_P2
2022/09/10 00:00:42;;;;;;;7.07;5.68;;;15.40;99.90;;;;;;5014231;28;20033;-76
2022/09/10 00:03:09;;;;;;;6.03;5.43;;;15.40;99.90;;;;;;5047626;28;20086;-76
2022/09/10 00:05:43;;;;;;;8.50;5.90;;;15.40;99.90;;;;;;5027480;28;20017;-76
2022/09/10 00:08:09;;;;;;;6.22;5.22;;;15.40;99.90;;;;;;5029903;28;20070;-76
2022/09/10 00:10:43;;;;;;;7.35;6.20;;;15.40;99.90;;;;;;5033042;28;20060;-78
2022/09/10 00:13:10;;;;;;;8.40;6.00;;;15.40;99.90;;;;;;5030068;28;20029;-76
2022/09/10 00:15:44;;;;;;;6.60;5.25;;;15.40;99.90;;;;;;5034965;28;20119;-76
2022/09/10 00:18:11;;;;;;;7.45;5.78;;;15.40;99.90;;;;;;5030298;28;20021;-76
2022/09/10 00:20:48;;;;;;;8.45;6.10;;;15.40;99.90;;;;;;5016470;28;20073;-76
2022/09/10 00:23:19;;;;;;;9.43;6.10;;;15.40;99.90;;;;;;5047424;28;20033;-77
2022/09/10 00:25:45;;;;;;;11.90;5.93;;;15.40;99.90;;;;;;5034157;28;20039;-76
2022/09/10 00:28:11;;;;;;;8.90;5.80;;;15.40;99.90;;;;;;5052028;28;20025;-75
2022/09/10 00:30:41;;;;;;;7.00;5.43;;;15.40;99.90;;;;;;5017443;28;20048;-75
2022/09/10 00:33:07;;;;;;;8.50;5.70;;;15.40;99.90;;;;;;5032657;28;20424;-77
2022/09/10 00:35:34;;;;;;;7.65;5.28;;;15.40;99.90;;;;;;5016130;28;20028;-76
2022/09/10 00:38:00;;;;;;;9.60;5.30;;;15.40;99.90;;;;;;5049286;28;20033;-77
2022/09/10 00:40:27;;;;;;;9.23;5.22;;;15.40;99.90;;;;;;5032685;28;20383;-76
2022/09/10 00:42:53;;;;;;;8.25;4.53;;;15.40;99.90;;;;;;5036547;28;20021;-76
2022/09/10 00:45:21;;;;;;;9.10;5.20;;;15.40;99.90;;;;;;5032235;28;20017;-76
2022/09/10 00:47:49;;;;;;;10.43;6.10;;;15.40;99.90;;;;;;5034715;28;20349;-77
2022/09/10 00:50:21;;;;;;;6.65;5.40;;;15.40;99.90;;;;;;5017558;28;20114;-78
2022/09/10 00:52:50;;;;;;;10.73;6.20;;;15.40;99.90;;;;;;5033343;28;20116;-78
2022/09/10 00:55:16;;;;;;;9.32;5.55;;;15.40;99.90;;;;;;5016963;28;20465;-75
2022/09/10 00:57:45;;;;;;;8.02;5.55;;;15.50;99.90;;;;;;5034842;28;20037;-76
2022/09/10 01:00:12;;;;;;;9.57;5.82;;;15.50;99.90;;;;;;5034045;28;20045;-76
2022/09/10 01:02:38;;;;;;;8.20;5.93;;;15.40;99.90;;;;;;5012416;28;20029;-76
2022/09/10 01:05:07;;;;;;;7.30;5.75;;;15.40;99.90;;;;;;5035391;28;20392;-77
2022/09/10 01:07:35;;;;;;;7.28;4.20;;;15.40;99.90;;;;;;5031619;28;20029;-77
2022/09/10 01:10:08;;;;;;;10.60;4.55;;;15.40;99.90;;;;;;5033474;28;20032;-77
2022/09/10 01:13:12;;;;;;;5.78;3.90;;;15.40;99.90;;;;;;5022317;28;20506;-76
2022/09/10 01:15:53;;;;;;;7.50;4.00;;;15.40;99.90;;;;;;5032566;28;20467;-76
2022/09/10 01:18:22;;;;;;;7.70;4.28;;;15.40;99.90;;;;;;5027710;28;20400;-76
2022/09/10 01:21:05;;;;;;;20.85;4.75;;;15.40;99.90;;;;;;5032160;28;20039;-76
2022/09/10 01:24:02;;;;;;;8.70;4.18;;;15.40;99.90;;;;;;5045533;28;20035;-76
2022/09/10 01:26:35;;;;;;;6.07;3.97;;;15.40;99.90;;;;;;5032527;28;20120;-76
2022/09/10 01:29:25;;;;;;;6.60;4.20;;;15.30;99.90;;;;;;5016519;28;20481;-76
2022/09/10 01:32:05;;;;;;;5.13;4.10;;;15.30;99.90;;;;;;5029758;28;20321;-76
2022/09/10 01:34:45;;;;;;;7.53;4.00;;;15.30;99.90;;;;;;5033710;28;20067;-76
2022/09/10 01:37:29;;;;;;;4.53;3.92;;;15.30;99.90;;;;;;5041019;28;20032;-76
2022/09/10 01:39:57;;;;;;;6.43;3.88;;;15.30;99.90;;;;;;5028283;28;20508;-75
2022/09/10 01:42:25;;;;;;;5.97;3.80;;;15.30;99.90;;;;;;5015212;28;20132;-76
2022/09/10 01:44:52;;;;;;;6.20;3.67;;;15.30;99.90;;;;;;5033750;28;20059;-76
2022/09/10 01:47:24;;;;;;;5.72;3.88;;;15.30;99.90;;;;;;5033542;28;20392;-75
2022/09/10 01:50:01;;;;;;;7.32;4.10;;;15.30;99.90;;;;;;5031904;28;20424;-75
2022/09/10 01:52:45;;;;;;;6.25;3.88;;;15.30;99.90;;;;;;5031598;28;20097;-75
2022/09/10 01:55:30;;;;;;;6.85;4.07;;;15.30;99.90;;;;;;5036643;28;20068;-75
2022/09/10 01:58:12;;;;;;;7.38;3.97;;;15.30;99.90;;;;;;5020308;28;20029;-76
2022/09/10 02:00:42;;;;;;;5.15;3.53;;;15.30;99.90;;;;;;5017970;28;20026;-75
2022/09/10 02:03:15;;;;;;;5.05;3.53;;;15.30;99.90;;;;;;5030593;28;20036;-75
2022/09/10 02:05:44;;;;;;;6.45;3.85;;;15.30;99.90;;;;;;5049981;28;20100;-75
2022/09/10 02:08:19;;;;;;;6.00;3.80;;;15.30;99.90;;;;;;5048916;28;20271;-75
2022/09/10 02:10:54;;;;;;;5.60;4.05;;;15.30;99.90;;;;;;5012456;28;20032;-75
2022/09/10 02:13:22;;;;;;;5.35;3.55;;;15.30;99.90;;;;;;4999855;28;20112;-77
2022/09/10 02:15:50;;;;;;;6.43;4.40;;;15.30;99.90;;;;;;5013821;28;20044;-75
2022/09/10 02:18:18;;;;;;;4.85;3.78;;;15.30;99.90;;;;;;5031354;28;20079;-75
2022/09/10 02:20:45;;;;;;;6.15;3.90;;;15.30;99.90;;;;;;5030796;28;20033;-75
2022/09/10 02:23:12;;;;;;;5.22;4.47;;;15.30;99.90;;;;;;5014716;28;20033;-78
2022/09/10 02:25:37;;;;;;;6.75;4.05;;;15.30;99.90;;;;;;5035225;28;20079;-76
2022/09/10 02:28:04;;;;;;;6.00;4.40;;;15.30;99.90;;;;;;5031721;28;20056;-76
2022/09/10 02:30:31;;;;;;;8.18;4.38;;;15.30;99.90;;;;;;5030052;28;20089;-76
2022/09/10 02:32:56;;;;;;;4.93;3.83;;;15.30;99.90;;;;;;5049083;28;20083;-76
2022/09/10 02:35:22;;;;;;;5.45;4.05;;;15.30;99.90;;;;;;5029612;28;20543;-76
2022/09/10 02:37:49;;;;;;;6.30;3.92;;;15.30;99.90;;;;;;5030650;28;20028;-76
2022/09/10 02:40:18;;;;;;;6.22;4.13;;;15.30;99.90;;;;;;5013054;28;20036;-76
2022/09/10 02:42:45;;;;;;;5.75;4.00;;;15.30;99.90;;;;;;5014502;28;20272;-75
2022/09/10 02:45:12;;;;;;;6.95;4.07;;;15.30;99.90;;;;;;5015320;28;20126;-76
2022/09/10 02:47:38;;;;;;;7.70;3.78;;;15.30;99.90;;;;;;5013142;28;20029;-77
2022/09/10 02:50:05;;;;;;;9.05;4.55;;;15.30;99.90;;;;;;5014247;28;20036;-76
2022/09/10 02:52:32;;;;;;;4.72;3.78;;;15.30;99.90;;;;;;5013399;28;20030;-77
2022/09/10 02:54:58;;;;;;;5.25;4.00;;;15.30;99.90;;;;;;5031492;28;20534;-76
2022/09/10 02:57:25;;;;;;;5.25;3.67;;;15.30;99.90;;;;;;5014494;28;20405;-76
2022/09/10 02:59:52;;;;;;;5.47;4.20;;;15.30;99.90;;;;;;5032417;28;20037;-75
2022/09/10 03:02:19;;;;;;;6.40;4.13;;;15.30;99.90;;;;;;5031950;28;20028;-75
2022/09/10 03:04:45;;;;;;;5.28;4.28;;;15.30;99.90;;;;;;5029336;28;20080;-75
2022/09/10 03:07:15;;;;;;;5.97;4.55;;;15.30;99.90;;;;;;5031174;28;20025;-75
2022/09/10 03:09:41;;;;;;;6.93;3.83;;;15.30;99.90;;;;;;5030341;28;20075;-76
2022/09/10 03:12:07;;;;;;;7.22;4.13;;;15.20;99.90;;;;;;5031472;28;20049;-77
2022/09/10 03:14:33;;;;;;;5.65;4.00;;;15.30;99.90;;;;;;5031610;28;20396;-74
2022/09/10 03:16:59;;;;;;;5.25;4.03;;;15.30;99.90;;;;;;5015410;28;20104;-76
2022/09/10 03:19:25;;;;;;;6.28;4.03;;;15.30;99.90;;;;;;5024653;28;20039;-76
2022/09/10 03:21:51;;;;;;;6.88;4.15;;;15.30;99.90;;;;;;5030362;28;20029;-75
2022/09/10 03:24:18;;;;;;;6.65;4.07;;;15.30;99.90;;;;;;5042773;28;20451;-75
2022/09/10 03:26:44;;;;;;;9.73;4.40;;;15.30;99.90;;;;;;5048806;28;20087;-75
2022/09/10 03:29:10;;;;;;;5.93;4.07;;;15.30;99.90;;;;;;5014961;28;20020;-76
2022/09/10 03:31:36;;;;;;;6.50;3.35;;;15.30;99.90;;;;;;5050404;28;20032;-76
2022/09/10 03:34:02;;;;;;;6.75;3.80;;;15.30;99.90;;;;;;5053008;28;20029;-76
2022/09/10 03:36:30;;;;;;;6.25;3.40;;;15.30;99.90;;;;;;4998907;28;20036;-76
2022/09/10 03:38:59;;;;;;;4.60;3.30;;;15.30;99.90;;;;;;5029115;28;20037;-75
2022/09/10 03:41:27;;;;;;;6.35;3.08;;;15.30;99.90;;;;;;5030622;28;20029;-75
2022/09/10 03:43:53;;;;;;;5.30;2.90;;;15.30;99.90;;;;;;5031548;28;20025;-76
2022/09/10 03:46:20;;;;;;;3.03;2.72;;;15.30;99.90;;;;;;5031440;28;20096;-74
2022/09/10 03:48:46;;;;;;;5.63;3.58;;;15.30;99.90;;;;;;5030129;28;20036;-76
2022/09/10 03:51:12;;;;;;;3.83;3.22;;;15.30;99.90;;;;;;5030949;28;20021;-81
2022/09/10 03:53:38;;;;;;;4.68;3.42;;;15.30;99.90;;;;;;5032302;28;20595;-76
2022/09/10 03:56:04;;;;;;;5.30;2.72;;;15.20;99.90;;;;;;5027903;28;20057;-75
2022/09/10 03:58:31;;;;;;;4.05;3.30;;;15.30;99.90;;;;;;5049462;28;20031;-75
2022/09/10 04:00:57;;;;;;;4.45;3.10;;;15.20;99.90;;;;;;5014774;28;20085;-77
2022/09/10 04:03:23;;;;;;;6.28;2.92;;;15.20;99.90;;;;;;5049143;28;20116;-75
2022/09/10 04:05:49;;;;;;;4.32;3.30;;;15.20;99.90;;;;;;5030862;28;20111;-75
2022/09/10 04:08:15;;;;;;;4.97;3.53;;;15.30;99.90;;;;;;5029954;28;20024;-75
2022/09/10 04:10:43;;;;;;;4.40;2.97;;;15.20;99.90;;;;;;5029994;28;20082;-76
2022/09/10 04:13:09;;;;;;;3.10;2.80;;;15.20;99.90;;;;;;5015928;28;20040;-76
2022/09/10 04:15:36;;;;;;;5.22;3.28;;;15.20;99.90;;;;;;5032205;28;20025;-76
2022/09/10 04:18:03;;;;;;;3.25;2.90;;;15.20;99.90;;;;;;5015010;28;20120;-77
2022/09/10 04:20:28;;;;;;;5.75;3.28;;;15.20;99.90;;;;;;5047860;28;20037;-76
2022/09/10 04:22:55;;;;;;;6.85;3.45;;;15.20;99.90;;;;;;5048936;28;20489;-76
2022/09/10 04:25:21;;;;;;;3.75;2.90;;;15.20;99.90;;;;;;5033589;28;20025;-75
2022/09/10 04:27:48;;;;;;;5.35;3.63;;;15.20;99.90;;;;;;5014569;28;20032;-74
2022/09/10 04:30:15;;;;;;;5.35;3.30;;;15.20;99.90;;;;;;5016950;28;20515;-76
2022/09/10 04:32:41;;;;;;;5.10;3.17;;;15.10;99.90;;;;;;5017127;28;20055;-76
2022/09/10 04:35:07;;;;;;;5.50;3.47;;;15.10;99.90;;;;;;5053650;28;20538;-75
2022/09/10 04:37:33;;;;;;;3.55;3.25;;;15.10;99.90;;;;;;5035430;28;20025;-77
2022/09/10 04:39:59;;;;;;;5.60;3.60;;;15.10;99.90;;;;;;5051413;28;20246;-75
2022/09/10 04:42:25;;;;;;;5.47;3.90;;;15.00;99.90;;;;;;5033572;28;20025;-80
2022/09/10 04:44:51;;;;;;;6.60;3.80;;;15.00;99.90;;;;;;5031920;28;20140;-77
2022/09/10 04:47:17;;;;;;;4.22;3.50;;;15.00;99.90;;;;;;5034898;28;20446;-76
2022/09/10 04:49:43;;;;;;;7.40;3.97;;;15.00;99.90;;;;;;5052102;28;20266;-75
2022/09/10 04:52:10;;;;;;;5.22;3.60;;;15.00;99.90;;;;;;5011516;28;20030;-75
2022/09/10 04:54:37;;;;;;;5.75;3.70;;;15.00;99.90;;;;;;5017392;28;20028;-76
2022/09/10 04:57:03;;;;;;;8.00;4.22;;;15.00;99.90;;;;;;5038796;28;20028;-76
2022/09/10 04:59:30;;;;;;;4.50;3.67;;;15.00;99.90;;;;;;5030969;28;20166;-78
2022/09/10 05:01:56;;;;;;;5.88;3.70;;;14.90;99.90;;;;;;5016761;28;20056;-76
2022/09/10 05:04:22;;;;;;;8.43;4.20;;;14.90;99.90;;;;;;5039498;28;20032;-76
2022/09/10 05:06:49;;;;;;;6.85;3.78;;;14.90;99.90;;;;;;5014498;28;20052;-77
2022/09/10 05:09:16;;;;;;;7.03;3.60;;;14.90;99.90;;;;;;5016877;28;20179;-76
2022/09/10 05:11:42;;;;;;;9.00;3.78;;;14.90;99.90;;;;;;5046706;28;20025;-76
2022/09/10 05:14:08;;;;;;;8.40;4.38;;;14.90;99.90;;;;;;5015024;28;20116;-76
2022/09/10 05:16:35;;;;;;;6.78;3.95;;;15.00;99.90;;;;;;5030000;28;20108;-76
2022/09/10 05:19:01;;;;;;;6.45;3.95;;;15.00;99.90;;;;;;5015235;28;20171;-76
2022/09/10 05:21:28;;;;;;;6.65;4.25;;;15.00;99.90;;;;;;5033384;28;20119;-76
2022/09/10 05:23:54;;;;;;;8.80;3.90;;;15.00;99.90;;;;;;5034002;28;20036;-75
2022/09/10 05:26:20;;;;;;;5.57;4.15;;;15.00;99.90;;;;;;5033372;28;20073;-75
2022/09/10 05:28:46;;;;;;;8.40;4.57;;;15.00;99.90;;;;;;5031692;28;20025;-74
2022/09/10 05:31:12;;;;;;;6.38;4.28;;;15.00;99.90;;;;;;5032556;28;20382;-75
2022/09/10 05:33:39;;;;;;;8.18;4.53;;;15.00;99.90;;;;;;5014368;28;20024;-74
2022/09/10 05:36:10;;;;;;;5.78;4.05;;;15.00;99.90;;;;;;5051086;28;20107;-75
2022/09/10 05:38:36;;;;;;;5.63;4.40;;;15.10;99.90;;;;;;5014857;28;20086;-75
2022/09/10 05:41:02;;;;;;;7.25;5.05;;;15.10;99.90;;;;;;5014778;28;20033;-75
2022/09/10 05:43:27;;;;;;;5.00;3.65;;;15.10;99.90;;;;;;5032679;28;20554;-75
2022/09/10 05:45:53;;;;;;;5.57;3.83;;;15.20;99.90;;;;;;5032535;28;20029;-75
2022/09/10 05:48:20;;;;;;;7.05;4.22;;;15.20;99.90;;;;;;5031519;28;20102;-75
2022/09/10 05:50:46;;;;;;;5.88;4.03;;;15.20;99.90;;;;;;5031948;28;20033;-76
2022/09/10 05:53:12;;;;;;;7.20;4.88;;;15.20;99.90;;;;;;5005920;28;20362;-76
2022/09/10 05:55:37;;;;;;;5.75;4.40;;;15.20;99.90;;;;;;5013480;28;20020;-74
2022/09/10 05:58:03;;;;;;;6.47;4.30;;;15.20;99.90;;;;;;5015636;28;20540;-74
2022/09/10 06:00:29;;;;;;;5.88;4.35;;;15.20;99.90;;;;;;5031373;28;20025;-75
2022/09/10 06:02:56;;;;;;;5.97;4.55;;;15.30;99.90;;;;;;5046333;28;20063;-75
2022/09/10 06:05:22;;;;;;;6.68;4.80;;;15.30;99.90;;;;;;5013960;28;20101;-76
2022/09/10 06:07:48;;;;;;;5.25;4.75;;;15.30;99.90;;;;;;5014269;28;20548;-75
2022/09/10 06:10:14;;;;;;;6.50;5.30;;;15.40;99.90;;;;;;5015821;28;20485;-75
2022/09/10 06:12:51;;;;;;;5.40;4.65;;;15.30;99.90;;;;;;5031317;28;20033;-75
2022/09/10 06:15:18;;;;;;;6.72;4.35;;;15.40;99.90;;;;;;5032076;28;20129;-76
2022/09/10 06:17:44;;;;;;;7.50;4.80;;;15.40;99.90;;;;;;5031141;28;20440;-75
2022/09/10 06:20:11;;;;;;;8.10;4.75;;;15.40;99.90;;;;;;5049004;28;20056;-74
2022/09/10 06:22:38;;;;;;;6.43;4.70;;;15.40;99.90;;;;;;5012822;28;20025;-75
2022/09/10 06:25:05;;;;;;;8.90;4.82;;;15.50;99.90;;;;;;5032196;28;20032;-77
2022/09/10 06:27:31;;;;;;;4.38;3.17;;;15.50;99.90;;;;;;5032285;28;20393;-76
2022/09/10 06:29:58;;;;;;;8.23;4.47;;;15.80;99.90;;;;;;5030821;28;20017;-76
2022/09/10 06:32:23;;;;;;;8.43;4.60;;;15.80;99.90;;;;;;5031790;28;20102;-77
2022/09/10 06:34:49;;;;;;;7.28;4.80;;;15.80;99.90;;;;;;5030818;28;20217;-75
2022/09/10 06:37:15;;;;;;;4.15;3.63;;;15.70;99.90;;;;;;5030812;28;20028;-77
2022/09/10 06:39:41;;;;;;;6.75;4.57;;;15.80;99.90;;;;;;5013728;28;20025;-77
2022/09/10 06:42:07;;;;;;;9.27;5.13;;;15.80;99.90;;;;;;5025543;28;20028;-77
2022/09/10 06:44:32;;;;;;;6.65;5.10;;;15.80;99.90;;;;;;5052679;28;20040;-77
2022/09/10 06:47:00;;;;;;;8.25;5.10;;;15.80;99.90;;;;;;5034973;28;20044;-75
2022/09/10 06:49:28;;;;;;;7.15;5.50;;;15.80;99.90;;;;;;5050870;28;20481;-75
2022/09/10 06:51:55;;;;;;;6.20;5.38;;;15.90;99.90;;;;;;5033486;28;20025;-75
2022/09/10 06:54:21;;;;;;;8.88;5.20;;;15.90;99.90;;;;;;5030275;28;20024;-74
2022/09/10 06:56:49;;;;;;;7.70;5.55;;;15.90;99.90;;;;;;5016605;28;20036;-75
2022/09/10 06:59:17;;;;;;;10.32;5.65;;;16.00;99.90;;;;;;5045979;28;20032;-75
2022/09/10 07:01:43;;;;;;;6.82;5.03;;;16.00;99.90;;;;;;5048082;28;20040;-75
2022/09/10 07:04:09;;;;;;;7.35;5.72;;;16.00;99.90;;;;;;5013777;28;20485;-76
2022/09/10 07:06:36;;;;;;;11.13;5.68;;;16.10;99.90;;;;;;5031146;28;20052;-76
2022/09/10 07:09:03;;;;;;;8.57;6.28;;;16.10;99.90;;;;;;5030830;28;20381;-76
2022/09/10 07:11:30;;;;;;;7.72;5.28;;;16.10;99.90;;;;;;5029516;28;20064;-76
2022/09/10 07:13:57;;;;;;;10.00;6.28;;;16.20;99.90;;;;;;5032346;28;20068;-76
2022/09/10 07:16:25;;;;;;;10.52;6.50;;;16.20;99.90;;;;;;5027996;28;20045;-75
2022/09/10 07:18:56;;;;;;;8.45;6.03;;;16.10;99.90;;;;;;5013312;28;20067;-75
2022/09/10 07:21:24;;;;;;;9.05;6.00;;;16.10;99.90;;;;;;5031632;28;20115;-75
2022/09/10 07:23:57;;;;;;;8.30;6.15;;;16.10;99.90;;;;;;5013990;28;20511;-76
2022/09/10 07:26:24;;;;;;;7.70;5.78;;;16.10;99.90;;;;;;5031680;28;20070;-76
2022/09/10 07:28:51;;;;;;;8.88;5.88;;;16.20;99.90;;;;;;5029680;28;20051;-75
2022/09/10 07:31:19;;;;;;;10.35;7.50;;;16.30;99.90;;;;;;5008898;28;20399;-74
2022/09/10 07:33:46;;;;;;;9.43;6.45;;;16.30;99.90;;;;;;5047740;28;20056;-74
2022/09/10 07:36:12;;;;;;;11.48;7.05;;;16.40;99.90;;;;;;5025466;28;20081;-76
2022/09/10 07:38:39;;;;;;;8.75;6.93;;;16.50;99.90;;;;;;5022270;28;20115;-76
2022/09/10 07:41:06;;;;;;;11.45;7.40;;;16.70;99.90;;;;;;5031026;28;20523;-76
2022/09/10 07:43:32;;;;;;;9.43;7.32;;;16.70;99.90;;;;;;5038819;28;20051;-75
2022/09/10 07:45:57;;;;;;;12.45;7.70;;;16.80;99.90;;;;;;5022341;28;20024;-76
2022/09/10 07:48:26;;;;;;;12.18;8.20;;;16.80;99.90;;;;;;5015609;28;20568;-75
2022/09/10 07:50:52;;;;;;;9.32;8.25;;;16.80;99.90;;;;;;5031051;28;20032;-76
2022/09/10 07:53:18;;;;;;;12.35;9.55;;;16.80;99.90;;;;;;5029546;28;20120;-76
2022/09/10 07:55:44;;;;;;;13.15;9.90;;;16.80;99.90;;;;;;5011955;28;20480;-76
2022/09/10 07:58:09;;;;;;;11.70;8.10;;;16.80;99.90;;;;;;5024492;28;20033;-76
2022/09/10 08:00:35;;;;;;;12.43;8.30;;;16.80;99.90;;;;;;5029569;28;20111;-75
2022/09/10 08:03:02;;;;;;;10.70;9.15;;;16.80;99.90;;;;;;5034207;28;20040;-75
2022/09/10 08:05:27;;;;;;;10.52;9.00;;;16.90;99.90;;;;;;5034570;28;20396;-75
2022/09/10 08:07:53;;;;;;;12.25;9.60;;;16.90;99.90;;;;;;5017653;28;20024;-75
2022/09/10 08:10:20;;;;;;;11.95;9.52;;;17.00;99.90;;;;;;5017555;28;20033;-75
2022/09/10 08:12:46;;;;;;;11.93;8.80;;;17.10;99.90;;;;;;5051374;28;20027;-75
2022/09/10 08:15:12;;;;;;;18.17;10.70;;;17.10;99.90;;;;;;5046769;28;20033;-76
2022/09/10 08:17:38;;;;;;;13.05;10.25;;;17.10;99.90;;;;;;5017618;28;20021;-76
2022/09/10 08:20:06;;;;;;;15.00;11.43;;;17.20;99.90;;;;;;5053000;28;20029;-76
2022/09/10 08:22:34;;;;;;;13.05;10.88;;;17.20;99.90;;;;;;5018469;28;20029;-76
2022/09/10 08:25:01;;;;;;;13.00;11.05;;;17.20;99.90;;;;;;5053391;28;20485;-77
2022/09/10 08:27:26;;;;;;;13.73;11.90;;;17.30;99.90;;;;;;5018837;28;20094;-76
2022/09/10 08:29:53;;;;;;;12.70;11.38;;;17.30;99.90;;;;;;5050103;28;20444;-77
2022/09/10 08:32:20;;;;;;;17.73;13.10;;;17.30;99.90;;;;;;5025287;28;20116;-76
2022/09/10 08:34:46;;;;;;;14.65;12.82;;;17.40;99.90;;;;;;4993051;28;20124;-76
2022/09/10 08:37:12;;;;;;;16.60;11.93;;;17.40;99.90;;;;;;5013789;28;20033;-76
2022/09/10 08:39:38;;;;;;;14.68;12.95;;;17.50;99.90;;;;;;5034756;28;20511;-74
2022/09/10 08:42:28;;;;;;;16.52;13.27;;;17.50;99.90;;;;;;5016924;28;20040;-78
2022/09/10 08:45:20;;;;;;;19.67;14.07;;;17.60;99.90;;;;;;5032252;28;20029;-77
2022/09/10 08:48:01;;;;;;;13.10;11.70;;;17.50;99.90;;;;;;5028947;28;20262;-77
2022/09/10 08:50:38;;;;;;;17.77;12.80;;;17.60;99.90;;;;;;5048774;28;20032;-78
2022/09/10 08:53:24;;;;;;;19.85;13.90;;;17.60;99.90;;;;;;5048335;28;20035;-75
2022/09/10 08:56:04;;;;;;;17.25;14.75;;;17.50;99.90;;;;;;5048377;28;20029;-77
2022/09/10 08:58:58;;;;;;;19.98;15.07;;;17.50;99.90;;;;;;5013371;28;20025;-76
2022/09/10 09:01:34;;;;;;;19.17;14.70;;;17.40;99.90;;;;;;5046774;28;20130;-78
2022/09/10 09:04:06;;;;;;;18.85;15.43;;;17.40;99.90;;;;;;5029796;28;20319;-76
2022/09/10 09:06:53;;;;;;;15.45;13.10;;;17.40;99.90;;;;;;5020048;28;20029;-76
2022/09/10 09:09:20;;;;;;;14.73;12.90;;;17.40;99.90;;;;;;5025917;28;20025;-76
2022/09/10 09:11:47;;;;;;;15.02;12.73;;;17.50;99.90;;;;;;5048695;28;20511;-76
2022/09/10 09:14:13;;;;;;;16.10;12.90;;;17.50;99.90;;;;;;5042333;28;20040;-76
2022/09/10 09:17:01;;;;;;;18.40;12.88;;;17.50;99.90;;;;;;5028715;28;20021;-76
2022/09/10 09:19:44;;;;;;;15.40;11.85;;;17.50;99.90;;;;;;5020593;28;20091;-76
2022/09/10 09:22:19;;;;;;;20.88;14.15;;;17.50;99.90;;;;;;5026467;28;20036;-76
2022/09/10 09:25:02;;;;;;;23.33;17.80;;;17.50;99.90;;;;;;5025635;28;20428;-76
2022/09/10 09:27:32;;;;;;;15.60;13.88;;;17.50;99.90;;;;;;5045491;28;20029;-76
2022/09/10 09:30:12;;;;;;;22.25;16.00;;;17.40;99.90;;;;;;5030841;28;20030;-76
2022/09/10 09:32:42;;;;;;;19.17;14.77;;;17.40;99.90;;;;;;5033177;28;20105;-75
2022/09/10 09:35:18;;;;;;;20.48;15.82;;;17.50;99.90;;;;;;5032924;28;20643;-76
2022/09/10 09:37:53;;;;;;;17.80;13.95;;;17.50;99.90;;;;;;5049083;28;20053;-76
2022/09/10 09:40:36;;;;;;;13.95;10.93;;;17.50;99.90;;;;;;5049129;28;20033;-75
2022/09/10 09:43:04;;;;;;;18.48;13.82;;;17.60;99.90;;;;;;5014219;28;20110;-74
2022/09/10 09:45:38;;;;;;;19.80;13.85;;;17.70;99.90;;;;;;5030877;28;20052;-76
2022/09/10 09:48:11;;;;;;;15.77;12.77;;;17.70;99.90;;;;;;5049853;28;20025;-76
2022/09/10 09:50:41;;;;;;;16.67;13.77;;;17.70;99.90;;;;;;5038703;28;20036;-76
2022/09/10 09:53:16;;;;;;;14.95;13.13;;;17.80;99.90;;;;;;5041253;28;20487;-77
2022/09/10 09:55:46;;;;;;;16.75;14.40;;;17.80;99.90;;;;;;5005638;28;20234;-76
2022/09/10 09:58:20;;;;;;;15.65;13.52;;;17.80;99.90;;;;;;5010742;28;20063;-76
2022/09/10 10:00:51;;;;;;;19.85;15.15;;;17.90;99.90;;;;;;5014576;28;20249;-75
2022/09/10 10:03:23;;;;;;;20.83;15.03;;;17.90;99.90;;;;;;5050477;28;20507;-76
2022/09/10 10:05:49;;;;;;;18.40;15.23;;;17.90;99.90;;;;;;5055513;28;20028;-75
2022/09/10 10:08:27;;;;;;;17.80;15.10;;;17.90;99.90;;;;;;5031343;28;20519;-78
2022/09/10 10:10:53;;;;;;;18.83;15.88;;;17.90;99.90;;;;;;5029689;28;20079;-75
2022/09/10 10:13:22;;;;;;;18.15;14.23;;;17.90;99.90;;;;;;5014598;28;20061;-75
2022/09/10 10:15:49;;;;;;;16.85;13.48;;;17.80;99.90;;;;;;5013814;28;20025;-75
2022/09/10 10:18:21;;;;;;;18.45;14.65;;;17.80;99.90;;;;;;5024164;28;20028;-75
2022/09/10 10:20:48;;;;;;;20.77;15.80;;;17.70;99.90;;;;;;5040146;28;20505;-75
2022/09/10 10:23:37;;;;;;;17.35;14.70;;;17.70;99.90;;;;;;5008578;28;20029;-76
2022/09/10 10:26:19;;;;;;;16.83;14.40;;;17.60;99.90;;;;;;5054729;28;20025;-74
2022/09/10 10:28:49;;;;;;;;;;;17.50;99.90;;;;;;5058835;28;20029;-75
2022/09/10 10:31:16;;;;;;;18.87;14.70;;;17.50;99.90;;;;;;5024302;28;19928;-75
2022/09/10 10:33:57;;;;;;;18.48;14.18;;;17.50;99.90;;;;;;5046582;28;20037;-76
2022/09/10 10:36:43;;;;;;;17.98;14.45;;;17.50;99.90;;;;;;5031693;28;20082;-76
2022/09/10 10:39:25;;;;;;;16.60;14.07;;;17.50;99.90;;;;;;5029298;28;20115;-76
2022/09/10 10:42:20;;;;;;;16.13;13.95;;;17.50;99.90;;;;;;5030364;28;20048;-75
2022/09/10 10:45:10;;;;;;;17.50;14.82;;;17.50;99.90;;;;;;5046285;28;20021;-75
2022/09/10 10:48:02;;;;;;;16.45;14.73;;;17.50;99.90;;;;;;5045737;28;20029;-75
2022/09/10 10:50:38;;;;;;;15.32;13.07;;;17.50;99.90;;;;;;5037176;28;20432;-76
2022/09/10 10:53:17;;;;;;;15.00;13.25;;;17.50;99.90;;;;;;5016383;28;20112;-76
2022/09/10 10:56:24;;;;;;;14.90;13.32;;;17.50;99.90;;;;;;5042877;28;20024;-75
2022/09/10 10:59:16;;;;;;;16.88;14.25;;;17.50;99.90;;;;;;5045193;28;20539;-75
2022/09/10 11:02:24;;;;;;;19.05;15.63;;;17.60;99.90;;;;;;5012098;28;20115;-75
2022/09/10 11:04:52;;;;;;;17.02;15.27;;;17.60;99.90;;;;;;4949431;28;20030;-76
2022/09/10 11:07:30;;;;;;;17.38;14.85;;;17.50;99.90;;;;;;4934412;28;20026;-77
2022/09/10 11:10:45;;;;;;;20.17;16.52;;;17.60;99.90;;;;;;4979175;28;20083;-75
2022/09/10 11:13:37;;;;;;;21.60;16.02;;;17.60;99.90;;;;;;5004646;28;20025;-76
2022/09/10 11:16:22;;;;;;;20.25;16.67;;;17.70;99.90;;;;;;5023439;28;20489;-77
2022/09/10 11:18:54;;;;;;;22.23;17.90;;;17.80;99.90;;;;;;5043957;28;20222;-77
2022/09/10 11:21:38;;;;;;;22.08;17.38;;;17.90;99.90;;;;;;5044818;28;20098;-75
2022/09/10 11:24:23;;;;;;;20.30;17.83;;;18.20;99.90;;;;;;5022823;28;20034;-76
2022/09/10 11:27:01;;;;;;;18.77;15.93;;;18.40;99.90;;;;;;5046645;28;20021;-77
2022/09/10 11:29:45;;;;;;;15.35;13.27;;;18.70;99.90;;;;;;5026994;28;20036;-77
2022/09/10 11:32:18;;;;;;;14.68;12.30;;;19.00;99.90;;;;;;5026185;28;20060;-76
2022/09/10 11:35:12;;;;;;;14.68;12.80;;;19.10;99.90;;;;;;5029084;28;20029;-76
2022/09/10 11:37:49;;;;;;;15.27;12.68;;;19.40;99.90;;;;;;5051553;28;20057;-78
2022/09/10 11:40:33;;;;;;;11.27;9.88;;;19.60;99.90;;;;;;5041351;28;20125;-77
2022/09/10 11:43:26;;;;;;;11.68;9.02;;;20.00;99.90;;;;;;5044612;28;20091;-82
2022/09/10 11:46:04;;;;;;;10.75;7.30;;;20.20;99.90;;;;;;5023334;28;20041;-76
2022/09/10 11:48:40;;;;;;;9.25;6.30;;;20.50;99.90;;;;;;5049314;28;20558;-75
2022/09/10 11:51:18;;;;;;;6.35;5.68;;;20.80;99.90;;;;;;5031588;28;20056;-75
2022/09/10 11:53:44;;;;;;;6.05;5.43;;;20.90;99.90;;;;;;5033972;28;20040;-77
2022/09/10 11:56:22;;;;;;;7.57;4.65;;;21.00;99.90;;;;;;5033040;28;20029;-78
2022/09/10 11:59:04;;;;;;;4.80;4.40;;;20.90;99.90;;;;;;5049382;28;20064;-77
2022/09/10 12:01:53;;;;;;;5.30;4.57;;;20.90;99.90;;;;;;5047546;28;20063;-76
2022/09/10 12:04:39;;;;;;;6.13;4.60;;;21.10;99.90;;;;;;5028004;28;20461;-74
2022/09/10 12:07:26;;;;;;;5.75;4.15;;;21.50;99.90;;;;;;5047543;28;20048;-77
2022/09/10 12:10:30;;;;;;;4.93;4.15;;;21.80;99.90;;;;;;5019116;28;20126;-76
2022/09/10 12:12:56;;;;;;;8.80;5.22;;;22.00;99.90;;;;;;5041631;28;20512;-76
2022/09/10 12:15:25;;;;;;;4.70;3.85;;;21.80;99.90;;;;;;5043055;28;20074;-74
2022/09/10 12:18:11;;;;;;;5.57;3.30;;;21.90;99.90;;;;;;5011929;28;20040;-76
2022/09/10 12:20:47;;;;;;;5.28;3.38;;;22.50;99.90;;;;;;5033741;28;20780;-77
2022/09/10 12:23:26;;;;;;;4.18;3.17;;;23.20;99.90;;;;;;5016483;28;20033;-76
2022/09/10 12:26:09;;;;;;;4.50;3.90;;;23.60;99.90;;;;;;5050171;28;20037;-75
2022/09/10 12:28:41;;;;;;;5.38;3.95;;;23.80;99.90;;;;;;5025876;28;20504;-76
2022/09/10 12:31:16;;;;;;;5.75;3.92;;;24.10;99.90;;;;;;5033098;28;20548;-75
2022/09/10 12:33:44;;;;;;;4.90;3.72;;;24.50;99.90;;;;;;5046517;28;20032;-75
2022/09/10 12:36:13;;;;;;;5.00;3.33;;;24.80;99.90;;;;;;5045216;28;20037;-74
2022/09/10 12:38:53;;;;;;;3.85;3.03;;;24.70;99.90;;;;;;5046898;28;20055;-74
2022/09/10 12:41:20;;;;;;;;;;;24.30;99.90;;;;;;5032618;28;20104;-76
2022/09/10 12:43:46;;;;;;;5.10;3.75;;;23.40;99.90;;;;;;5039576;28;19938;-76
2022/09/10 12:46:13;;;;;;;4.15;3.42;;;23.00;99.90;;;;;;5048243;28;20445;-75
2022/09/10 12:48:47;;;;;;;4.75;3.55;;;22.60;99.90;;;;;;5029849;28;20366;-74
2022/09/10 12:51:16;;;;;;;5.25;3.60;;;22.30;99.90;;;;;;5042062;28;20089;-76
2022/09/10 12:54:04;;;;;;;4.78;3.60;;;22.10;99.90;;;;;;5012580;28;20064;-73
2022/09/10 12:57:11;;;;;;;4.03;3.20;;;21.80;99.90;;;;;;5032980;28;20033;-74
2022/09/10 13:00:20;;;;;;;5.88;3.70;;;21.60;99.90;;;;;;5006475;28;20025;-73
2022/09/10 13:02:59;;;;;;;3.38;2.55;;;21.40;99.90;;;;;;4997640;28;20423;-77